Terminal Aerodrome Forecast
Issued by NWS Newport/Morehead City, NC

Home | Current Version | Previous Version | Text Only | Print | Product List | Glossary Off
Versions: 1 2 3 4 5 6 7 8 9 10 11 12 13 14 15 16 17

000
FTUS42 KMHX 300500
TAFEWN
TAF
KEWN 300530Z 3006/3106 34005KT 6SM SHRA SCT008 BKN025
      TEMPO 3006/3009 VRB10G20KT 3SM SHRA BR BKN007
     FM301000 36006KT P6SM SCT020 BKN035
     FM301300 01007KT P6SM FEW040 BKN100=

USA.gov is the U.S. government's official web portal to all federal, state and local government web resources and services.